Time;durP1;ratioP1;P1;durP2;ratioP2;P2;SDS_P1;SDS_P2;PMS_P1;PMS_P2;Temp;Humidity;BMP_temperature;BMP_pressure;BME280_temperature;BME280_humidity;BME280_pressure;Samples;Min_cycle;Max_cycle;Signal;HPM_P1;HPM_P2
2023/08/09 00:01:46;;;;;;;6.93;4.05;;;;;;;;;;5115054;28;20713;-65
2023/08/09 00:04:12;;;;;;;7.60;3.90;;;;;;;;;;5114586;28;20038;-65
2023/08/09 00:06:39;;;;;;;9.27;4.38;;;;;;;;;;5114877;28;20165;-65
2023/08/09 00:09:05;;;;;;;8.93;4.20;;;;;;;;;;5114712;28;20121;-65
2023/08/09 00:11:31;;;;;;;6.38;3.92;;;;;;;;;;5114479;28;20387;-65
2023/08/09 00:14:00;;;;;;;8.73;4.50;;;;;;;;;;5114341;28;20518;-65
2023/08/09 00:16:26;;;;;;;7.22;4.38;;;;;;;;;;5114837;28;20405;-65
2023/08/09 00:18:52;;;;;;;5.43;4.00;;;;;;;;;;5114155;28;20047;-65
2023/08/09 00:21:19;;;;;;;5.68;4.22;;;;;;;;;;5114758;28;20081;-65
2023/08/09 00:23:45;;;;;;;8.35;4.65;;;;;;;;;;5114525;28;20462;-65
2023/08/09 00:26:11;;;;;;;8.30;5.47;;;;;;;;;;5114001;28;20047;-65
2023/08/09 00:28:37;;;;;;;7.60;5.13;;;;;;;;;;5114118;28;20128;-65
2023/08/09 00:31:03;;;;;;;14.15;5.38;;;;;;;;;;5114517;28;20040;-65
2023/08/09 00:33:29;;;;;;;9.18;5.38;;;;;;;;;;5146984;27;20043;-65
2023/08/09 00:35:55;;;;;;;9.80;4.68;;;;;;;;;;5113927;28;20036;-65
2023/08/09 00:38:21;;;;;;;10.32;5.35;;;;;;;;;;5114362;28;20035;-65
2023/08/09 00:40:47;;;;;;;14.50;5.70;;;;;;;;;;5113473;28;20036;-65
2023/08/09 00:43:13;;;;;;;12.40;4.90;;;;;;;;;;5114279;28;20036;-65
2023/08/09 00:45:42;;;;;;;20.98;7.20;;;;;;;;;;5112938;28;20052;-65
2023/08/09 00:48:08;;;;;;;18.27;7.07;;;;;;;;;;5113849;28;20532;-65
2023/08/09 00:50:34;;;;;;;15.38;6.40;;;;;;;;;;5114154;28;20040;-65
2023/08/09 00:53:00;;;;;;;13.95;6.60;;;;;;;;;;5114063;28;20584;-65
2023/08/09 00:55:26;;;;;;;13.95;6.40;;;;;;;;;;5113731;28;20039;-65
2023/08/09 00:57:53;;;;;;;12.88;6.70;;;;;;;;;;5113990;28;20089;-65
2023/08/09 01:00:19;;;;;;;13.70;7.18;;;;;;;;;;5113874;28;20043;-65
2023/08/09 01:02:45;;;;;;;11.23;6.93;;;;;;;;;;5113427;28;20119;-65
2023/08/09 01:05:11;;;;;;;11.48;7.07;;;;;;;;;;5113760;28;20054;-65
2023/08/09 01:07:43;;;;;;;30.10;7.90;;;;;;;;;;5113793;28;20071;-65
2023/08/09 01:10:12;;;;;;;16.75;7.43;;;;;;;;;;5112703;28;20043;-65
2023/08/09 01:12:41;;;;;;;19.23;7.57;;;;;;;;;;5113442;28;20051;-65
2023/08/09 01:15:08;;;;;;;10.73;7.18;;;;;;;;;;5113559;28;20451;-65
2023/08/09 01:17:35;;;;;;;19.35;7.78;;;;;;;;;;5112959;28;20050;-65
2023/08/09 01:20:01;;;;;;;11.50;7.88;;;;;;;;;;5113488;28;20076;-65
2023/08/09 01:22:29;;;;;;;10.70;7.07;;;;;;;;;;5113192;28;20042;-65
2023/08/09 01:24:58;;;;;;;25.25;8.60;;;;;;;;;;5112971;28;20051;-65
2023/08/09 01:27:24;;;;;;;12.13;7.95;;;;;;;;;;5092900;28;20107;-65
2023/08/09 01:29:50;;;;;;;11.80;8.13;;;;;;;;;;5093033;28;20048;-65
2023/08/09 01:32:16;;;;;;;14.52;8.30;;;;;;;;;;5092621;28;20047;-65
2023/08/09 01:34:42;;;;;;;13.05;9.20;;;;;;;;;;5092736;28;20040;-65
2023/08/09 01:37:27;;;;;;;16.92;9.55;;;;;;;;;;5092968;28;20454;-65
2023/08/09 01:39:55;;;;;;;12.70;9.02;;;;;;;;;;5092268;28;20040;-65
2023/08/09 01:42:21;;;;;;;17.00;9.00;;;;;;;;;;5092731;28;20044;-65
2023/08/09 01:44:47;;;;;;;12.85;9.27;;;;;;;;;;5092601;28;20039;-65
2023/08/09 01:47:14;;;;;;;12.57;8.70;;;;;;;;;;5092266;28;20394;-65
2023/08/09 01:49:51;;;;;;;16.63;9.20;;;;;;;;;;5092519;28;20537;-65
2023/08/09 01:52:17;;;;;;;14.80;8.95;;;;;;;;;;5092690;28;20044;-65
2023/08/09 01:54:43;;;;;;;12.55;8.93;;;;;;;;;;5091903;28;20032;-65
2023/08/09 01:57:11;;;;;;;14.15;9.43;;;;;;;;;;5091199;28;20072;-65
2023/08/09 01:59:37;;;;;;;14.82;8.48;;;;;;;;;;5092275;28;20555;-65
2023/08/09 02:02:04;;;;;;;14.40;9.48;;;;;;;;;;5092006;28;20075;-65
2023/08/09 02:04:30;;;;;;;11.82;8.10;;;;;;;;;;5092117;28;20040;-65
2023/08/09 02:06:56;;;;;;;12.95;9.10;;;;;;;;;;5092218;28;20040;-65
2023/08/09 02:09:22;;;;;;;13.80;9.10;;;;;;;;;;5109858;28;20043;-65
2023/08/09 02:11:48;;;;;;;17.00;9.32;;;;;;;;;;5112292;28;20705;-65
2023/08/09 02:14:14;;;;;;;14.23;9.18;;;;;;;;;;5111885;28;20143;-65
2023/08/09 02:16:40;;;;;;;15.15;9.63;;;;;;;;;;5111972;28;20128;-65
2023/08/09 02:19:09;;;;;;;13.80;8.98;;;;;;;;;;5112386;28;20373;-65
2023/08/09 02:21:35;;;;;;;15.45;9.98;;;;;;;;;;5111033;28;20058;-65
2023/08/09 02:24:01;;;;;;;14.02;9.30;;;;;;;;;;5111759;28;20042;-65
2023/08/09 02:26:27;;;;;;;13.55;9.40;;;;;;;;;;5112152;28;20081;-65
2023/08/09 02:28:53;;;;;;;13.02;9.48;;;;;;;;;;5112333;28;20090;-65
2023/08/09 02:31:19;;;;;;;12.30;9.32;;;;;;;;;;5111877;28;20504;-65
2023/08/09 02:33:45;;;;;;;13.93;9.35;;;;;;;;;;5112123;28;20075;-65
2023/08/09 02:36:11;;;;;;;12.85;9.27;;;;;;;;;;5111949;28;20119;-65
2023/08/09 02:38:38;;;;;;;12.63;9.32;;;;;;;;;;5111587;28;20135;-65
2023/08/09 02:41:04;;;;;;;17.05;10.13;;;;;;;;;;5111983;28;20123;-65
2023/08/09 02:43:30;;;;;;;13.80;9.07;;;;;;;;;;5110709;28;20401;-65
2023/08/09 02:45:57;;;;;;;13.18;9.05;;;;;;;;;;5144412;27;20504;-65
2023/08/09 02:48:23;;;;;;;13.40;9.52;;;;;;;;;;5111196;28;20047;-65
2023/08/09 02:50:49;;;;;;;14.18;9.38;;;;;;;;;;5111558;28;20050;-65
2023/08/09 02:53:17;;;;;;;13.18;8.98;;;;;;;;;;5111677;28;20469;-65
2023/08/09 02:55:43;;;;;;;10.27;7.90;;;;;;;;;;5111239;28;20039;-66
2023/08/09 02:58:09;;;;;;;10.55;8.15;;;;;;;;;;5111843;28;20496;-66
2023/08/09 03:00:36;;;;;;;11.63;8.40;;;;;;;;;;5111644;28;20043;-66
2023/08/09 03:03:04;;;;;;;13.35;8.45;;;;;;;;;;5111075;28;20074;-66
2023/08/09 03:05:30;;;;;;;11.73;8.05;;;;;;;;;;5111560;28;20838;-65
2023/08/09 03:07:57;;;;;;;12.35;8.20;;;;;;;;;;5111439;28;20040;-65
2023/08/09 03:10:23;;;;;;;11.50;7.85;;;;;;;;;;5110997;28;20122;-65
2023/08/09 03:12:49;;;;;;;11.75;7.82;;;;;;;;;;5111082;28;20043;-65
2023/08/09 03:15:16;;;;;;;12.55;8.13;;;;;;;;;;5111417;28;20039;-65
2023/08/09 03:17:42;;;;;;;11.27;8.18;;;;;;;;;;5111165;28;20532;-65
2023/08/09 03:20:14;;;;;;;10.57;8.15;;;;;;;;;;5111309;28;20039;-65
2023/08/09 03:22:41;;;;;;;12.07;8.13;;;;;;;;;;5111107;28;20489;-65
2023/08/09 03:25:07;;;;;;;13.43;8.25;;;;;;;;;;5111018;28;20485;-65
2023/08/09 03:27:33;;;;;;;11.43;8.13;;;;;;;;;;5111198;28;20047;-65
2023/08/09 03:30:01;;;;;;;9.85;7.85;;;;;;;;;;5111028;28;20047;-65
2023/08/09 03:32:27;;;;;;;12.52;8.02;;;;;;;;;;5110318;28;20043;-65
2023/08/09 03:34:53;;;;;;;12.13;8.35;;;;;;;;;;5111168;28;20595;-65
2023/08/09 03:37:19;;;;;;;14.88;8.30;;;;;;;;;;5111175;28;20460;-65
2023/08/09 03:39:45;;;;;;;9.63;8.00;;;;;;;;;;5110598;28;20449;-65
2023/08/09 03:42:11;;;;;;;10.43;7.93;;;;;;;;;;5111094;28;20039;-65
2023/08/09 03:44:37;;;;;;;9.77;7.95;;;;;;;;;;5110989;28;20089;-65
2023/08/09 03:47:03;;;;;;;12.32;8.98;;;;;;;;;;5110548;28;20036;-65
2023/08/09 03:49:29;;;;;;;10.63;9.40;;;;;;;;;;5110678;28;20062;-65
2023/08/09 03:51:55;;;;;;;12.15;8.45;;;;;;;;;;5111018;28;20043;-65
2023/08/09 03:54:21;;;;;;;9.55;8.32;;;;;;;;;;5110559;28;20501;-65
2023/08/09 03:56:47;;;;;;;10.75;7.90;;;;;;;;;;5110687;28;20046;-65
2023/08/09 03:59:14;;;;;;;10.20;8.27;;;;;;;;;;5110499;28;20044;-65
2023/08/09 04:01:40;;;;;;;10.45;8.15;;;;;;;;;;5110035;28;20043;-65
2023/08/09 04:04:07;;;;;;;11.32;8.65;;;;;;;;;;5110710;28;20115;-65
2023/08/09 04:06:33;;;;;;;11.35;8.27;;;;;;;;;;5110837;28;20039;-65
2023/08/09 04:09:00;;;;;;;11.65;8.70;;;;;;;;;;5095446;28;20055;-65
2023/08/09 04:11:26;;;;;;;9.15;8.25;;;;;;;;;;5090698;28;20047;-65
2023/08/09 04:13:52;;;;;;;10.13;7.93;;;;;;;;;;5090286;28;20090;-65
2023/08/09 04:16:18;;;;;;;12.02;8.00;;;;;;;;;;5090277;28;20070;-65
2023/08/09 04:18:44;;;;;;;10.43;7.72;;;;;;;;;;5090666;28;20040;-65
2023/08/09 04:21:10;;;;;;;12.27;8.32;;;;;;;;;;5090461;28;20051;-65
2023/08/09 04:23:36;;;;;;;13.07;8.10;;;;;;;;;;5090044;28;20115;-65
2023/08/09 04:26:03;;;;;;;10.52;7.90;;;;;;;;;;5099281;28;20042;-65
2023/08/09 04:28:29;;;;;;;8.80;7.57;;;;;;;;;;5110848;28;20043;-65
2023/08/09 04:30:56;;;;;;;11.38;7.90;;;;;;;;;;5110448;28;20043;-65
2023/08/09 04:33:22;;;;;;;9.75;7.93;;;;;;;;;;5110443;28;20043;-65
2023/08/09 04:35:48;;;;;;;9.45;7.97;;;;;;;;;;5110776;28;20043;-65
2023/08/09 04:38:15;;;;;;;11.00;8.25;;;;;;;;;;5110287;28;20040;-65
2023/08/09 04:40:41;;;;;;;10.23;7.75;;;;;;;;;;5110569;28;20385;-65
2023/08/09 04:43:07;;;;;;;11.13;7.57;;;;;;;;;;5110190;28;20040;-65
2023/08/09 04:45:34;;;;;;;12.63;8.05;;;;;;;;;;5112176;28;20047;-65
2023/08/09 04:48:01;;;;;;;13.00;8.23;;;;;;;;;;5114339;28;20531;-65
2023/08/09 04:50:27;;;;;;;11.63;7.10;;;;;;;;;;5114249;28;20458;-65
2023/08/09 04:52:54;;;;;;;11.52;8.00;;;;;;;;;;5112417;28;20085;-65
2023/08/09 04:55:20;;;;;;;9.48;8.38;;;;;;;;;;5114250;28;20194;-65
2023/08/09 04:57:47;;;;;;;9.13;7.43;;;;;;;;;;5114000;28;20084;-65
2023/08/09 05:00:14;;;;;;;9.52;7.30;;;;;;;;;;5113597;28;20065;-65
2023/08/09 05:02:40;;;;;;;10.20;7.97;;;;;;;;;;5113758;28;20047;-65
2023/08/09 05:05:07;;;;;;;9.85;7.47;;;;;;;;;;5113978;28;20558;-65
2023/08/09 05:07:33;;;;;;;10.55;7.63;;;;;;;;;;5113388;28;21061;-65
2023/08/09 05:10:00;;;;;;;8.77;7.28;;;;;;;;;;5113914;28;20045;-65
2023/08/09 05:12:26;;;;;;;8.77;7.68;;;;;;;;;;5113503;28;20055;-65
2023/08/09 05:14:52;;;;;;;8.93;7.85;;;;;;;;;;5113417;28;20043;-65
2023/08/09 05:17:18;;;;;;;9.40;7.65;;;;;;;;;;5113619;28;20123;-65
2023/08/09 05:19:44;;;;;;;8.27;7.25;;;;;;;;;;5113293;28;20758;-65
2023/08/09 05:22:10;;;;;;;9.85;7.13;;;;;;;;;;5113184;28;20100;-65
2023/08/09 05:24:36;;;;;;;8.20;7.38;;;;;;;;;;5113216;28;20048;-65
2023/08/09 05:27:02;;;;;;;12.63;7.88;;;;;;;;;;5113018;28;20040;-65
2023/08/09 05:29:28;;;;;;;8.90;7.10;;;;;;;;;;5112679;28;20123;-65
2023/08/09 05:31:55;;;;;;;10.05;7.15;;;;;;;;;;5113160;28;20112;-65
2023/08/09 05:34:21;;;;;;;7.90;7.10;;;;;;;;;;5113208;28;20039;-65
2023/08/09 05:36:47;;;;;;;7.07;6.25;;;;;;;;;;5112831;28;20089;-65
2023/08/09 05:39:13;;;;;;;9.65;6.97;;;;;;;;;;5113002;28;20031;-65
2023/08/09 05:41:39;;;;;;;9.55;6.68;;;;;;;;;;5112897;28;20046;-65
2023/08/09 05:44:05;;;;;;;8.15;6.65;;;;;;;;;;5112584;28;20089;-65
2023/08/09 05:46:32;;;;;;;6.85;6.18;;;;;;;;;;5112532;28;20040;-65
2023/08/09 05:48:58;;;;;;;7.43;6.50;;;;;;;;;;5112826;28;20043;-65
2023/08/09 05:51:25;;;;;;;7.82;6.20;;;;;;;;;;5112282;28;20118;-65
2023/08/09 05:53:51;;;;;;;7.00;6.30;;;;;;;;;;5112572;28;20420;-65
2023/08/09 05:56:17;;;;;;;6.00;5.40;;;;;;;;;;5112526;28;20047;-65
2023/08/09 05:58:43;;;;;;;6.57;5.88;;;;;;;;;;5112397;28;20088;-65
2023/08/09 06:01:11;;;;;;;9.35;6.25;;;;;;;;;;5145932;27;20061;-65
2023/08/09 06:03:39;;;;;;;7.43;5.65;;;;;;;;;;5112728;28;20054;-65
2023/08/09 06:06:08;;;;;;;7.47;6.00;;;;;;;;;;5112274;28;20035;-65
2023/08/09 06:08:35;;;;;;;7.47;6.10;;;;;;;;;;5112386;28;20161;-65
2023/08/09 06:11:01;;;;;;;7.60;5.53;;;;;;;;;;5112332;28;20112;-65
2023/08/09 06:13:27;;;;;;;7.43;5.50;;;;;;;;;;5111755;28;20063;-65
2023/08/09 06:15:53;;;;;;;6.20;5.30;;;;;;;;;;5111120;28;20120;-65
2023/08/09 06:18:19;;;;;;;7.57;5.05;;;;;;;;;;5112373;28;20085;-65
2023/08/09 06:20:45;;;;;;;5.78;4.90;;;;;;;;;;5111950;28;20554;-65
2023/08/09 06:23:12;;;;;;;4.88;4.45;;;;;;;;;;5110968;28;20455;-65
2023/08/09 06:25:38;;;;;;;7.68;4.72;;;;;;;;;;5112315;28;20504;-65
2023/08/09 06:28:05;;;;;;;6.88;4.65;;;;;;;;;;5145114;27;20036;-65
2023/08/09 06:30:31;;;;;;;6.20;4.13;;;;;;;;;;5112169;28;20054;-65
2023/08/09 06:32:57;;;;;;;4.72;3.85;;;;;;;;;;5112135;28;20040;-65
2023/08/09 06:35:23;;;;;;;7.47;4.60;;;;;;;;;;5111928;28;20355;-65
2023/08/09 06:37:50;;;;;;;5.40;3.95;;;;;;;;;;5112001;28;20050;-65
2023/08/09 06:40:17;;;;;;;4.65;3.85;;;;;;;;;;5111463;28;20050;-65
2023/08/09 06:42:43;;;;;;;4.82;3.83;;;;;;;;;;5116466;27;20372;-65
2023/08/09 06:45:10;;;;;;;4.63;3.53;;;;;;;;;;5126452;27;20035;-65
2023/08/09 06:47:36;;;;;;;3.95;3.55;;;;;;;;;;5111603;28;20070;-65
2023/08/09 06:50:04;;;;;;;6.05;3.70;;;;;;;;;;5111957;28;20055;-65
2023/08/09 06:52:31;;;;;;;4.75;3.17;;;;;;;;;;5131435;27;20457;-65
2023/08/09 06:54:57;;;;;;;5.13;3.55;;;;;;;;;;5125612;27;20477;-65
2023/08/09 06:57:23;;;;;;;5.18;3.42;;;;;;;;;;5111945;28;20553;-65
2023/08/09 06:59:49;;;;;;;5.03;3.50;;;;;;;;;;5111283;28;20699;-65
2023/08/09 07:02:15;;;;;;;4.57;3.15;;;;;;;;;;5112291;27;20069;-65
2023/08/09 07:04:41;;;;;;;7.15;3.67;;;;;;;;;;5132319;27;20525;-65
2023/08/09 07:07:07;;;;;;;3.30;3.00;;;;;;;;;;5130880;27;20036;-65
2023/08/09 07:09:33;;;;;;;3.30;2.78;;;;;;;;;;5112202;27;20039;-65
2023/08/09 07:11:59;;;;;;;4.40;3.03;;;;;;;;;;5126603;27;20046;-65
2023/08/09 07:14:25;;;;;;;4.32;2.70;;;;;;;;;;5131639;27;20051;-65
2023/08/09 07:16:51;;;;;;;5.18;3.00;;;;;;;;;;5131884;27;20047;-65
2023/08/09 07:19:17;;;;;;;3.55;2.80;;;;;;;;;;5131783;27;20043;-65
2023/08/09 07:21:43;;;;;;;4.90;2.58;;;;;;;;;;5131858;27;20031;-65
2023/08/09 07:24:10;;;;;;;3.72;2.20;;;;;;;;;;5131964;27;20070;-65
2023/08/09 07:26:36;;;;;;;6.45;3.00;;;;;;;;;;5120784;27;20047;-65
2023/08/09 07:29:03;;;;;;;5.03;2.63;;;;;;;;;;5131672;27;20062;-65
2023/08/09 07:31:29;;;;;;;4.50;2.28;;;;;;;;;;5131942;27;20042;-65
2023/08/09 07:33:55;;;;;;;5.50;2.60;;;;;;;;;;5132011;27;20046;-65
2023/08/09 07:36:21;;;;;;;2.97;2.53;;;;;;;;;;5114046;27;20044;-65
2023/08/09 07:38:47;;;;;;;4.13;2.40;;;;;;;;;;5115158;28;20481;-65
2023/08/09 07:41:13;;;;;;;7.20;2.38;;;;;;;;;;5131810;27;20035;-65
2023/08/09 07:43:39;;;;;;;3.22;2.30;;;;;;;;;;5130876;27;20092;-65
2023/08/09 07:46:06;;;;;;;5.25;2.22;;;;;;;;;;5131484;27;20036;-65
2023/08/09 07:48:32;;;;;;;3.47;2.05;;;;;;;;;;5131603;27;20721;-65
2023/08/09 07:50:58;;;;;;;2.92;2.05;;;;;;;;;;5131128;27;20385;-65
2023/08/09 07:53:25;;;;;;;4.07;2.30;;;;;;;;;;5130615;28;20039;-65
2023/08/09 07:55:51;;;;;;;4.72;2.13;;;;;;;;;;5131263;27;20130;-65
2023/08/09 07:58:17;;;;;;;3.75;2.00;;;;;;;;;;5131082;27;20047;-65
2023/08/09 08:00:43;;;;;;;3.97;2.20;;;;;;;;;;5111578;27;20048;-65
2023/08/09 08:03:09;;;;;;;5.55;2.47;;;;;;;;;;5110440;28;20119;-66
2023/08/09 08:05:36;;;;;;;4.13;3.15;;;;;;;;;;5110654;28;20127;-65
2023/08/09 08:08:02;;;;;;;4.88;2.50;;;;;;;;;;5117641;28;20044;-66
2023/08/09 08:10:29;;;;;;;4.88;2.70;;;;;;;;;;5111382;28;20131;-65
2023/08/09 08:12:55;;;;;;;8.45;2.90;;;;;;;;;;5130835;27;20061;-65
2023/08/09 08:15:22;;;;;;;5.30;2.50;;;;;;;;;;5123515;28;20047;-65
2023/08/09 08:17:51;;;;;;;4.30;2.13;;;;;;;;;;5111082;28;20088;-65
2023/08/09 08:20:19;;;;;;;4.07;2.40;;;;;;;;;;5129229;27;20707;-65
2023/08/09 08:22:45;;;;;;;3.67;1.75;;;;;;;;;;5134220;27;20074;-65
2023/08/09 08:25:15;;;;;;;3.60;1.80;;;;;;;;;;5133576;27;20073;-65
2023/08/09 08:27:45;;;;;;;5.10;2.00;;;;;;;;;;5124287;27;20117;-65
2023/08/09 08:30:21;;;;;;;6.00;2.33;;;;;;;;;;5135398;27;20453;-65
2023/08/09 08:32:47;;;;;;;4.72;2.00;;;;;;;;;;5134929;27;20043;-65
2023/08/09 08:35:14;;;;;;;4.63;2.40;;;;;;;;;;5134642;27;20047;-65
2023/08/09 08:37:41;;;;;;;3.45;1.77;;;;;;;;;;5135391;27;20778;-65
2023/08/09 08:40:08;;;;;;;3.28;1.60;;;;;;;;;;5134955;27;20036;-65
2023/08/09 08:42:35;;;;;;;3.47;1.60;;;;;;;;;;5134431;27;20062;-65
2023/08/09 08:45:09;;;;;;;4.35;1.60;;;;;;;;;;5134955;27;20039;-65
2023/08/09 08:47:35;;;;;;;3.33;1.63;;;;;;;;;;5134921;27;20092;-65
2023/08/09 08:50:02;;;;;;;3.33;1.80;;;;;;;;;;5134650;27;20043;-65
2023/08/09 08:52:28;;;;;;;3.83;1.40;;;;;;;;;;5134827;27;20040;-65
2023/08/09 08:54:55;;;;;;;1.90;1.52;;;;;;;;;;5134662;27;20039;-65
2023/08/09 08:57:21;;;;;;;3.72;1.58;;;;;;;;;;5134310;27;20066;-65
2023/08/09 08:59:48;;;;;;;2.67;1.90;;;;;;;;;;5134464;27;20646;-65
2023/08/09 09:02:14;;;;;;;3.20;1.33;;;;;;;;;;5134764;27;20027;-65
2023/08/09 09:04:40;;;;;;;2.15;1.40;;;;;;;;;;5133857;27;20039;-65
2023/08/09 09:07:06;;;;;;;2.30;1.10;;;;;;;;;;5134446;27;20473;-65
2023/08/09 09:09:32;;;;;;;2.97;1.38;;;;;;;;;;5114938;27;20043;-65
2023/08/09 09:12:02;;;;;;;4.90;1.65;;;;;;;;;;5124896;27;20103;-65
2023/08/09 09:14:28;;;;;;;5.68;1.80;;;;;;;;;;5134181;27;20122;-65
2023/08/09 09:16:55;;;;;;;2.00;1.10;;;;;;;;;;5134220;27;20464;-65
2023/08/09 09:19:21;;;;;;;2.08;1.00;;;;;;;;;;5133821;27;20051;-65
2023/08/09 09:21:47;;;;;;;5.30;1.10;;;;;;;;;;5134339;27;20109;-65
2023/08/09 09:24:13;;;;;;;1.83;0.98;;;;;;;;;;5134191;27;20070;-65
2023/08/09 09:26:39;;;;;;;1.77;0.95;;;;;;;;;;5119425;27;20042;-65
2023/08/09 09:29:09;;;;;;;1.65;1.00;;;;;;;;;;5133788;27;20386;-65
2023/08/09 09:31:36;;;;;;;4.35;1.35;;;;;;;;;;5133028;27;20042;-65
2023/08/09 09:34:03;;;;;;;2.20;1.35;;;;;;;;;;5133706;27;20031;-65
2023/08/09 09:36:30;;;;;;;2.25;0.95;;;;;;;;;;5133675;27;20047;-65
2023/08/09 09:38:56;;;;;;;2.63;0.90;;;;;;;;;;5133864;27;20039;-65
2023/08/09 09:41:22;;;;;;;3.17;1.00;;;;;;;;;;5132234;27;20120;-65
2023/08/09 09:43:50;;;;;;;1.58;0.93;;;;;;;;;;5133710;27;20071;-65
2023/08/09 09:46:19;;;;;;;3.33;0.70;;;;;;;;;;5133529;27;20046;-65
2023/08/09 09:48:47;;;;;;;2.85;0.90;;;;;;;;;;5132975;27;20641;-65
2023/08/09 09:51:15;;;;;;;3.83;1.00;;;;;;;;;;5133336;27;20071;-65
2023/08/09 09:53:41;;;;;;;6.20;1.33;;;;;;;;;;5133668;27;20043;-65
2023/08/09 09:56:09;;;;;;;3.00;1.23;;;;;;;;;;5133099;27;20058;-65
2023/08/09 09:58:35;;;;;;;3.60;1.05;;;;;;;;;;5133540;27;20043;-65
2023/08/09 10:01:02;;;;;;;1.60;0.98;;;;;;;;;;5133318;27;20050;-65
2023/08/09 10:03:29;;;;;;;2.42;1.10;;;;;;;;;;5132981;27;20043;-65
2023/08/09 10:05:56;;;;;;;2.30;1.00;;;;;;;;;;5133477;27;20046;-65
2023/08/09 10:08:25;;;;;;;2.13;0.90;;;;;;;;;;5123193;27;20128;-65
2023/08/09 10:10:53;;;;;;;3.08;1.10;;;;;;;;;;5112019;28;20414;-65
2023/08/09 10:13:21;;;;;;;2.20;1.05;;;;;;;;;;5131643;27;20050;-65
2023/08/09 10:16:02;;;;;;;2.03;1.00;;;;;;;;;;5132614;27;20085;-65
2023/08/09 10:18:28;;;;;;;1.35;0.80;;;;;;;;;;5132672;27;20047;-65
2023/08/09 10:20:55;;;;;;;2.63;0.70;;;;;;;;;;5132755;27;20529;-65
2023/08/09 10:23:21;;;;;;;1.80;0.82;;;;;;;;;;5128860;27;20063;-65
2023/08/09 10:25:48;;;;;;;1.85;1.00;;;;;;;;;;5111914;28;20535;-65
2023/08/09 10:28:15;;;;;;;2.58;0.95;;;;;;;;;;5123530;27;20123;-65
2023/08/09 10:30:44;;;;;;;1.95;0.90;;;;;;;;;;5132650;27;20130;-65
2023/08/09 10:33:10;;;;;;;1.77;0.98;;;;;;;;;;5132113;27;20039;-65
2023/08/09 10:35:49;;;;;;;2.75;1.08;;;;;;;;;;5132670;27;20035;-65
2023/08/09 10:38:15;;;;;;;3.55;1.15;;;;;;;;;;5132579;27;20060;-65
2023/08/09 10:40:42;;;;;;;1.23;0.85;;;;;;;;;;5132170;27;20100;-65
2023/08/09 10:43:17;;;;;;;1.50;0.70;;;;;;;;;;5131454;27;20039;-65
2023/08/09 10:45:45;;;;;;;6.60;1.50;;;;;;;;;;5132800;27;20046;-65
2023/08/09 10:48:23;;;;;;;3.10;0.93;;;;;;;;;;5131888;27;20088;-65
2023/08/09 10:51:07;;;;;;;15.93;1.30;;;;;;;;;;5132550;27;20069;-65
2023/08/09 10:53:52;;;;;;;2.95;0.93;;;;;;;;;;5132490;27;20050;-65
2023/08/09 10:56:47;;;;;;;3.25;1.05;;;;;;;;;;5131557;27;20168;-65
2023/08/09 10:59:21;;;;;;;2.72;1.00;;;;;;;;;;5110468;27;20055;-65
2023/08/09 11:01:47;;;;;;;2.17;1.17;;;;;;;;;;5132244;27;20051;-65
2023/08/09 11:04:14;;;;;;;2.72;0.90;;;;;;;;;;5121954;27;20119;-65
2023/08/09 11:06:40;;;;;;;2.03;0.88;;;;;;;;;;5111464;28;20044;-65
2023/08/09 11:09:14;;;;;;;2.22;0.80;;;;;;;;;;5112803;28;20123;-66
2023/08/09 11:11:41;;;;;;;2.05;0.85;;;;;;;;;;5116806;27;20087;-66
2023/08/09 11:14:08;;;;;;;3.13;0.80;;;;;;;;;;5131956;27;20066;-65
2023/08/09 11:16:35;;;;;;;4.40;0.80;;;;;;;;;;5131752;27;20366;-65
2023/08/09 11:19:01;;;;;;;2.17;0.80;;;;;;;;;;5132056;27;20058;-65
2023/08/09 11:21:27;;;;;;;2.25;0.77;;;;;;;;;;5131935;27;20046;-65
2023/08/09 11:23:57;;;;;;;1.85;0.90;;;;;;;;;;5131916;27;20031;-65
2023/08/09 11:26:23;;;;;;;2.22;0.75;;;;;;;;;;5119653;27;20454;-65
2023/08/09 11:28:49;;;;;;;5.22;0.80;;;;;;;;;;5125391;27;20122;-65
2023/08/09 11:31:15;;;;;;;1.80;0.90;;;;;;;;;;5131710;27;20043;-65
2023/08/09 11:33:42;;;;;;;2.17;0.80;;;;;;;;;;5131535;27;20051;-65
2023/08/09 11:36:09;;;;;;;2.22;0.90;;;;;;;;;;5131896;27;20126;-65
2023/08/09 11:38:35;;;;;;;3.80;0.90;;;;;;;;;;5132070;27;20043;-65
2023/08/09 11:41:01;;;;;;;4.75;1.02;;;;;;;;;;5131376;27;20609;-66
2023/08/09 11:43:27;;;;;;;2.80;0.80;;;;;;;;;;5131769;27;20108;-66
2023/08/09 11:45:54;;;;;;;1.58;0.90;;;;;;;;;;5131932;27;20079;-65
2023/08/09 11:48:27;;;;;;;1.77;1.05;;;;;;;;;;5131424;27;20047;-65
2023/08/09 11:51:07;;;;;;;1.42;0.88;;;;;;;;;;5131645;27;20047;-65
2023/08/09 11:53:34;;;;;;;2.88;1.10;;;;;;;;;;5131708;27;20111;-65
2023/08/09 11:56:05;;;;;;;4.22;1.00;;;;;;;;;;5135128;27;20050;-65
2023/08/09 11:58:35;;;;;;;2.67;0.80;;;;;;;;;;5135686;27;20122;-65
2023/08/09 12:01:12;;;;;;;3.00;1.08;;;;;;;;;;5135272;27;20164;-65
2023/08/09 12:03:38;;;;;;;2.92;1.00;;;;;;;;;;5134248;27;20575;-65
2023/08/09 12:06:05;;;;;;;2.95;1.10;;;;;;;;;;5135781;27;20124;-65
2023/08/09 12:08:37;;;;;;;2.08;1.13;;;;;;;;;;5124058;27;20042;-65
2023/08/09 12:11:04;;;;;;;3.10;1.10;;;;;;;;;;5115001;28;20044;-65
2023/08/09 12:13:30;;;;;;;2.47;1.33;;;;;;;;;;5132928;27;20066;-65
2023/08/09 12:15:56;;;;;;;3.10;1.30;;;;;;;;;;5134872;27;20353;-65
2023/08/09 12:18:25;;;;;;;4.35;1.30;;;;;;;;;;5135481;27;20118;-65
2023/08/09 12:20:51;;;;;;;1.33;0.88;;;;;;;;;;5135090;27;20192;-65
2023/08/09 12:23:17;;;;;;;3.15;1.33;;;;;;;;;;5133850;27;20031;-65
2023/08/09 12:25:44;;;;;;;2.33;0.95;;;;;;;;;;5128918;27;20116;-66
2023/08/09 12:28:10;;;;;;;2.53;1.17;;;;;;;;;;5121193;27;20043;-65
2023/08/09 12:30:37;;;;;;;1.73;0.98;;;;;;;;;;5134989;27;20389;-65
2023/08/09 12:33:03;;;;;;;4.25;1.65;;;;;;;;;;5134761;27;20625;-65
2023/08/09 12:35:29;;;;;;;2.85;1.20;;;;;;;;;;5134837;27;20039;-65
2023/08/09 12:37:55;;;;;;;2.80;1.05;;;;;;;;;;5135146;27;20082;-65
2023/08/09 12:40:21;;;;;;;4.38;1.75;;;;;;;;;;5134758;27;20043;-65
2023/08/09 12:42:47;;;;;;;2.83;1.10;;;;;;;;;;5135009;27;20031;-65
2023/08/09 12:45:13;;;;;;;3.17;1.45;;;;;;;;;;5134923;27;20538;-65
2023/08/09 12:47:39;;;;;;;4.07;1.00;;;;;;;;;;5134328;27;20035;-66
2023/08/09 12:50:06;;;;;;;4.75;1.23;;;;;;;;;;5135082;27;20039;-65
2023/08/09 12:52:32;;;;;;;5.22;1.48;;;;;;;;;;5134568;27;20130;-65
2023/08/09 12:54:58;;;;;;;3.35;1.30;;;;;;;;;;5134372;27;20039;-66
2023/08/09 12:57:24;;;;;;;2.55;1.25;;;;;;;;;;5134650;27;20039;-66
2023/08/09 12:59:50;;;;;;;2.78;1.20;;;;;;;;;;5134370;27;20085;-65
2023/08/09 13:02:16;;;;;;;3.95;1.25;;;;;;;;;;5134139;27;20039;-66
2023/08/09 13:04:42;;;;;;;2.65;1.17;;;;;;;;;;5134102;27;20092;-65
2023/08/09 13:07:08;;;;;;;2.35;1.40;;;;;;;;;;5133441;27;20075;-65
2023/08/09 13:09:36;;;;;;;2.17;1.10;;;;;;;;;;5114173;27;20070;-65
2023/08/09 13:12:07;;;;;;;3.15;1.30;;;;;;;;;;5118288;27;20049;-65
2023/08/09 13:14:33;;;;;;;5.45;1.42;;;;;;;;;;5134024;27;20568;-65
2023/08/09 13:16:59;;;;;;;2.75;1.33;;;;;;;;;;5121042;27;20039;-65
2023/08/09 13:19:25;;;;;;;2.13;0.93;;;;;;;;;;5113437;28;20086;-66
2023/08/09 13:21:51;;;;;;;5.93;1.40;;;;;;;;;;5132895;27;20050;-66
2023/08/09 13:24:17;;;;;;;3.15;1.13;;;;;;;;;;5133285;27;20035;-65
2023/08/09 13:26:43;;;;;;;3.70;1.10;;;;;;;;;;5118901;27;20448;-65
2023/08/09 13:29:09;;;;;;;7.13;1.27;;;;;;;;;;5126779;27;20043;-65
2023/08/09 13:31:35;;;;;;;5.18;1.25;;;;;;;;;;5133205;27;20058;-65
2023/08/09 13:34:01;;;;;;;4.22;1.38;;;;;;;;;;5133410;27;20092;-65
2023/08/09 13:36:27;;;;;;;2.50;1.00;;;;;;;;;;5133548;27;20050;-65
2023/08/09 13:38:53;;;;;;;2.90;0.90;;;;;;;;;;5133162;27;20046;-65
2023/08/09 13:41:19;;;;;;;4.88;1.10;;;;;;;;;;5133490;27;20071;-65
2023/08/09 13:43:45;;;;;;;4.10;1.08;;;;;;;;;;5133367;27;20042;-65
2023/08/09 13:46:11;;;;;;;6.20;1.27;;;;;;;;;;5132786;27;20099;-66
2023/08/09 13:48:38;;;;;;;5.85;1.92;;;;;;;;;;5132908;27;20043;-66
2023/08/09 13:51:05;;;;;;;4.85;1.42;;;;;;;;;;5133348;27;20047;-66
2023/08/09 13:53:31;;;;;;;4.88;0.90;;;;;;;;;;5132468;27;20047;-66
2023/08/09 13:55:57;;;;;;;3.95;0.90;;;;;;;;;;5133281;27;20509;-66
2023/08/09 13:58:23;;;;;;;3.92;1.42;;;;;;;;;;5133148;27;20050;-66
2023/08/09 14:00:49;;;;;;;4.30;1.00;;;;;;;;;;5132551;27;20393;-65
2023/08/09 14:03:15;;;;;;;3.70;1.10;;;;;;;;;;5132684;27;20035;-66
2023/08/09 14:05:41;;;;;;;2.00;0.93;;;;;;;;;;5132989;27;20129;-66
2023/08/09 14:08:07;;;;;;;4.03;1.35;;;;;;;;;;5128615;27;20042;-65
2023/08/09 14:10:33;;;;;;;3.50;0.98;;;;;;;;;;5132895;27;20393;-66
2023/08/09 14:13:00;;;;;;;7.03;1.65;;;;;;;;;;5132076;27;20062;-66
2023/08/09 14:15:26;;;;;;;2.72;1.17;;;;;;;;;;5132585;27;20035;-65
2023/08/09 14:17:52;;;;;;;3.38;1.20;;;;;;;;;;5132327;27;20388;-65
2023/08/09 14:20:19;;;;;;;7.47;1.13;;;;;;;;;;5132450;27;20115;-65
2023/08/09 14:22:47;;;;;;;3.72;0.98;;;;;;;;;;5132220;27;20082;-65
2023/08/09 14:25:16;;;;;;;3.28;1.05;;;;;;;;;;5130331;27;20088;-66
2023/08/09 14:27:42;;;;;;;3.75;1.00;;;;;;;;;;5111605;28;20466;-66
2023/08/09 14:30:09;;;;;;;6.40;1.08;;;;;;;;;;5111910;28;20171;-66
2023/08/09 14:32:35;;;;;;;4.45;1.00;;;;;;;;;;5112072;28;20401;-66
2023/08/09 14:35:01;;;;;;;4.57;1.23;;;;;;;;;;5112135;28;20569;-66
2023/08/09 14:37:27;;;;;;;4.07;1.25;;;;;;;;;;5111760;28;20093;-66